Time;durP1;ratioP1;P1;durP2;ratioP2;P2;SDS_P1;SDS_P2;PMS_P1;PMS_P2;Temp;Humidity;BMP_temperature;BMP_pressure;BME280_temperature;BME280_humidity;BME280_pressure;Samples;Min_cycle;Max_cycle;Signal;HPM_P1;HPM_P2
2021/10/23 01:03:48;;;;;;;3.83;2.50;;;8.20;99.90;;;;;;5892080;22;20672;-96
2021/10/23 01:06:21;;;;;;;6.20;2.90;;;8.20;99.90;;;;;;5094396;28;20621;-96
2021/10/23 01:08:53;;;;;;;6.33;2.90;;;8.20;99.90;;;;;;5111814;28;20716;-95
2021/10/23 01:11:20;;;;;;;4.23;2.97;;;8.20;99.90;;;;;;5107392;28;20664;-96
2021/10/23 01:13:50;;;;;;;4.23;2.40;;;8.20;99.90;;;;;;5108146;28;20650;-96
2021/10/23 01:16:20;;;;;;;6.37;3.10;;;8.20;99.90;;;;;;5109612;28;20659;-95
2021/10/23 01:18:49;;;;;;;5.77;3.10;;;8.10;99.90;;;;;;5100181;28;20632;-96
2021/10/23 01:21:36;;;;;;;4.20;2.70;;;8.10;99.90;;;;;;5071704;28;20620;-96
2021/10/23 01:24:05;;;;;;;5.47;3.20;;;8.10;99.90;;;;;;5088443;28;20676;-95
2021/10/23 01:26:33;;;;;;;3.50;2.50;;;8.00;99.90;;;;;;5087235;28;20648;-93
2021/10/23 01:29:02;;;;;;;9.87;3.13;;;8.00;99.90;;;;;;5090063;28;20683;-96
2021/10/23 01:31:32;;;;;;;5.87;2.87;;;8.00;99.90;;;;;;5084035;28;20760;-96
2021/10/23 01:34:10;;;;;;;6.07;3.07;;;8.00;99.90;;;;;;5080685;28;20641;-96
2021/10/23 01:36:43;;;;;;;5.33;2.57;;;8.00;99.90;;;;;;5094816;28;20674;-96
2021/10/23 01:39:15;;;;;;;7.27;2.83;;;8.00;99.90;;;;;;5093452;28;20660;-96
2021/10/23 01:41:54;;;;;;;3.67;3.07;;;8.00;99.90;;;;;;5103827;28;20637;-96
2021/10/23 01:50:05;;;;;;;7.47;2.90;;;8.00;99.90;;;;;;5100064;28;20663;-96
2021/10/23 01:52:41;;;;;;;3.80;2.43;;;8.00;99.90;;;;;;5091734;28;20647;-96
2021/10/23 01:55:11;;;;;;;5.03;3.07;;;8.00;99.90;;;;;;5102963;28;20628;-95
2021/10/23 01:57:40;;;;;;;3.77;2.63;;;8.10;99.90;;;;;;5108231;28;20636;-95
2021/10/23 02:00:09;;;;;;;4.13;2.60;;;8.00;99.90;;;;;;5099929;28;20656;-96
2021/10/23 02:03:08;;;;;;;3.60;2.50;;;8.00;99.90;;;;;;5098902;28;20648;-95
2021/10/23 02:05:35;;;;;;;4.13;2.83;;;8.00;99.90;;;;;;5086948;28;20685;-96
2021/10/23 02:19:15;;;;;;;5.53;2.90;;;8.00;99.90;;;;;;5090251;28;20656;-95
2021/10/23 02:21:47;;;;;;;3.70;2.87;;;7.90;99.90;;;;;;5091705;28;20605;-94
2021/10/23 02:24:15;;;;;;;8.27;2.70;;;8.00;99.90;;;;;;5085085;28;20645;-94
2021/10/23 02:26:43;;;;;;;4.90;3.50;;;7.90;99.90;;;;;;5090495;28;20624;-96
2021/10/23 02:29:21;;;;;;;3.93;2.93;;;7.90;99.90;;;;;;5086286;28;20701;-95
2021/10/23 02:31:53;;;;;;;4.57;2.87;;;7.80;99.90;;;;;;5071120;28;20668;-96
2021/10/23 02:34:24;;;;;;;5.57;3.00;;;7.80;99.90;;;;;;5062559;28;20629;-94
2021/10/23 02:36:51;;;;;;;3.07;2.60;;;7.80;99.90;;;;;;5066209;28;20644;-95
2021/10/23 02:39:24;;;;;;;7.10;3.00;;;7.70;99.90;;;;;;5065420;28;20731;-95
2021/10/23 02:47:17;;;;;;;4.90;2.90;;;7.60;99.90;;;;;;5066857;28;20671;-95
2021/10/23 02:49:57;;;;;;;3.30;2.60;;;7.60;99.90;;;;;;5077188;28;20629;-95
2021/10/23 02:52:29;;;;;;;5.17;3.13;;;7.60;99.90;;;;;;5072842;28;20681;-94
2021/10/23 02:55:09;;;;;;;7.00;2.90;;;7.60;99.90;;;;;;5079612;28;20655;-95
2021/10/23 02:57:36;;;;;;;4.97;2.57;;;7.50;99.90;;;;;;5088200;28;20653;-94
2021/10/23 03:00:17;;;;;;;6.60;3.07;;;7.50;99.90;;;;;;5066178;28;20668;-95
2021/10/23 03:02:45;;;;;;;5.93;3.20;;;7.60;99.90;;;;;;5080123;28;20667;-95
2021/10/23 03:05:24;;;;;;;5.10;2.83;;;7.60;99.90;;;;;;5076161;28;20629;-96
2021/10/23 03:07:53;;;;;;;5.53;2.83;;;7.70;99.90;;;;;;5073755;28;20686;-95
2021/10/23 03:10:24;;;;;;;6.90;2.90;;;7.60;99.90;;;;;;5071440;28;20629;-96
2021/10/23 03:12:56;;;;;;;6.77;3.80;;;7.70;99.90;;;;;;5067522;28;20723;-96
2021/10/23 03:15:23;;;;;;;3.30;2.77;;;7.70;99.90;;;;;;5082756;28;20717;-96
2021/10/23 03:17:52;;;;;;;4.57;3.30;;;7.70;99.90;;;;;;5083598;28;20686;-96
2021/10/23 03:20:25;;;;;;;5.17;2.50;;;7.70;99.90;;;;;;5071182;28;20637;-96
2021/10/23 03:22:54;;;;;;;5.40;3.00;;;7.80;99.90;;;;;;5060535;28;20712;-96
2021/10/23 03:25:26;;;;;;;2.97;2.47;;;7.80;99.90;;;;;;5048163;28;20656;-94
2021/10/23 03:27:54;;;;;;;8.70;3.27;;;7.80;99.90;;;;;;5069509;28;21302;-94
2021/10/23 03:30:21;;;;;;;5.13;2.70;;;7.80;99.90;;;;;;5073022;28;21218;-94
2021/10/23 03:32:56;;;;;;;4.40;3.23;;;7.80;99.90;;;;;;5070153;28;20656;-94
2021/10/23 03:35:33;;;;;;;5.30;2.90;;;7.80;99.90;;;;;;5066157;28;20656;-96
2021/10/23 03:38:00;;;;;;;3.90;2.70;;;7.80;99.90;;;;;;5062507;28;20958;-94
2021/10/23 03:40:28;;;;;;;3.90;2.20;;;7.80;99.90;;;;;;5069480;28;20633;-95
2021/10/23 03:42:55;;;;;;;3.20;2.60;;;7.80;99.90;;;;;;5072881;28;20637;-94
2021/10/23 03:45:29;;;;;;;5.37;2.73;;;7.80;99.90;;;;;;5067511;28;20840;-94
2021/10/23 03:47:57;;;;;;;7.40;3.17;;;7.90;99.90;;;;;;5073808;28;20706;-94
2021/10/23 03:50:51;;;;;;;5.03;3.23;;;7.90;99.90;;;;;;5082294;28;20624;-95
2021/10/23 03:53:39;;;;;;;4.73;3.07;;;7.90;99.90;;;;;;5081639;28;20651;-96
2021/10/23 03:56:07;;;;;;;4.57;3.10;;;7.90;99.90;;;;;;5064815;28;20636;-95
2021/10/23 03:58:42;;;;;;;6.03;2.20;;;7.90;99.90;;;;;;5058497;28;20649;-96
2021/10/23 04:01:15;;;;;;;5.50;3.17;;;7.90;99.90;;;;;;5083241;28;20667;-96
2021/10/23 04:03:44;;;;;;;6.73;3.60;;;7.90;99.90;;;;;;5070540;28;20720;-95
2021/10/23 04:20:16;;;;;;;5.30;3.60;;;7.70;99.90;;;;;;5084843;22;20692;-95
2021/10/23 04:22:44;;;;;;;5.93;3.03;;;7.70;99.90;;;;;;5054558;28;20626;-96
2021/10/23 04:25:11;;;;;;;5.20;3.10;;;7.60;99.90;;;;;;5055700;28;20626;-96
2021/10/23 04:27:38;;;;;;;8.37;3.47;;;7.60;99.90;;;;;;5055149;28;20637;-95
2021/10/23 04:30:09;;;;;;;4.93;3.33;;;7.60;99.90;;;;;;5039004;28;20754;-96
2021/10/23 04:32:39;;;;;;;3.43;2.60;;;7.60;99.90;;;;;;5040521;28;20658;-96
2021/10/23 04:35:14;;;;;;;5.03;2.50;;;7.50;99.90;;;;;;5041113;28;21189;-96
2021/10/23 04:37:43;;;;;;;6.67;3.30;;;7.50;99.90;;;;;;5034027;28;20706;-96
2021/10/23 04:40:11;;;;;;;4.27;3.43;;;7.40;99.90;;;;;;5057257;28;20626;-95
2021/10/23 04:42:40;;;;;;;4.23;2.73;;;7.40;99.90;;;;;;5038042;28;20653;-96
2021/10/23 04:45:08;;;;;;;3.70;2.90;;;7.40;99.90;;;;;;5033606;28;20634;-95
2021/10/23 04:47:39;;;;;;;4.27;2.90;;;7.50;99.90;;;;;;5031484;28;21190;-96
2021/10/23 04:50:21;;;;;;;4.57;2.90;;;7.50;99.90;;;;;;5068368;28;20694;-96
2021/10/23 04:52:52;;;;;;;7.07;3.20;;;7.40;99.90;;;;;;5035695;28;21181;-95
2021/10/23 04:55:20;;;;;;;4.90;2.80;;;7.40;99.90;;;;;;5037559;28;20666;-94
2021/10/23 04:57:49;;;;;;;4.97;2.77;;;7.40;99.90;;;;;;5039094;28;20734;-95
2021/10/23 05:00:17;;;;;;;4.37;2.63;;;7.50;99.90;;;;;;5038699;28;20704;-96
2021/10/23 05:02:44;;;;;;;3.37;2.50;;;7.50;99.90;;;;;;5041942;28;20705;-93
2021/10/23 05:05:12;;;;;;;6.50;2.70;;;7.50;99.90;;;;;;5038427;28;20635;-93
2021/10/23 05:07:53;;;;;;;4.27;2.57;;;7.50;99.90;;;;;;5043153;28;20626;-93
2021/10/23 05:10:20;;;;;;;7.67;4.07;;;7.50;99.90;;;;;;5038405;28;20625;-92
2021/10/23 05:12:47;;;;;;;5.10;3.27;;;7.50;99.90;;;;;;5045194;28;20680;-95
2021/10/23 05:15:15;;;;;;;6.10;3.80;;;7.50;99.90;;;;;;5043012;28;20992;-93
2021/10/23 05:17:43;;;;;;;4.17;2.70;;;7.50;99.90;;;;;;5045734;28;21203;-94
2021/10/23 05:20:13;;;;;;;5.03;3.23;;;7.50;99.90;;;;;;5033205;28;20718;-94
2021/10/23 05:22:41;;;;;;;6.20;3.10;;;7.50;99.90;;;;;;5058385;28;20642;-96
2021/10/23 05:25:16;;;;;;;5.07;3.40;;;7.60;99.90;;;;;;5066535;28;20665;-94
2021/10/23 05:27:43;;;;;;;5.40;3.20;;;7.60;99.90;;;;;;5059784;28;20635;-94
2021/10/23 05:30:12;;;;;;;4.30;3.10;;;7.60;99.90;;;;;;5058238;28;20669;-92
2021/10/23 05:32:39;;;;;;;4.70;3.13;;;7.70;99.90;;;;;;5043809;28;20662;-92
2021/10/23 05:35:08;;;;;;;4.03;2.93;;;7.90;99.90;;;;;;5041762;28;21204;-94
2021/10/23 05:37:36;;;;;;;7.27;3.27;;;7.90;99.90;;;;;;5041009;28;20658;-94
2021/10/23 05:40:04;;;;;;;5.23;3.00;;;7.80;99.90;;;;;;5040331;28;20637;-94
2021/10/23 05:42:32;;;;;;;6.83;3.70;;;7.90;99.90;;;;;;5046201;28;20626;-94
2021/10/23 05:44:59;;;;;;;4.90;3.40;;;7.80;99.90;;;;;;5041305;28;20647;-94
2021/10/23 05:47:27;;;;;;;7.70;4.10;;;7.80;99.90;;;;;;5038603;28;20645;-94
2021/10/23 05:49:54;;;;;;;5.70;3.40;;;7.80;99.90;;;;;;5043101;28;20653;-94
2021/10/23 05:52:21;;;;;;;8.40;3.43;;;7.80;99.90;;;;;;5037879;28;20651;-95
2021/10/23 05:54:50;;;;;;;6.27;3.23;;;7.80;99.90;;;;;;5046459;28;21161;-96
2021/10/23 05:57:18;;;;;;;3.40;2.70;;;7.90;99.90;;;;;;5038896;28;20638;-96
2021/10/23 05:59:47;;;;;;;5.07;2.70;;;7.80;99.90;;;;;;5037295;28;20659;-95
2021/10/23 06:02:27;;;;;;;5.40;3.43;;;7.80;99.90;;;;;;5045385;28;20634;-96
2021/10/23 06:04:58;;;;;;;7.73;3.10;;;7.70;99.90;;;;;;5047444;28;20718;-95
2021/10/23 06:07:27;;;;;;;5.20;2.70;;;7.80;99.90;;;;;;5048411;28;20626;-94
2021/10/23 06:12:36;;;;;;;4.23;2.63;;;7.80;99.90;;;;;;5060643;28;20673;-95
2021/10/23 06:18:28;;;;;;;4.10;2.13;;;7.90;99.90;;;;;;5108835;28;20855;-94
2021/10/23 06:21:03;;;;;;;6.03;3.40;;;7.90;99.90;;;;;;5085007;28;20741;-95
2021/10/23 06:23:33;;;;;;;8.10;3.37;;;7.90;99.90;;;;;;5087927;28;20755;-96
2021/10/23 06:26:03;;;;;;;6.00;3.37;;;8.00;99.90;;;;;;5087995;28;20633;-94
2021/10/23 06:31:14;;;;;;;8.73;2.93;;;8.10;99.90;;;;;;5092246;28;20629;-95
2021/10/23 06:33:43;;;;;;;6.10;3.47;;;8.10;99.90;;;;;;5074049;28;20716;-95
2021/10/23 06:36:13;;;;;;;5.40;3.10;;;8.20;99.90;;;;;;5077929;28;20776;-94
2021/10/23 06:38:40;;;;;;;7.93;3.53;;;8.30;99.90;;;;;;5076618;28;20744;-94
2021/10/23 06:41:08;;;;;;;4.87;4.20;;;8.30;99.90;;;;;;5066395;28;20701;-93
2021/10/23 06:43:35;;;;;;;4.03;3.10;;;8.20;99.90;;;;;;5060380;28;20715;-92
2021/10/23 06:46:03;;;;;;;4.37;3.20;;;8.20;99.90;;;;;;5062329;28;20684;-93
2021/10/23 06:48:34;;;;;;;6.27;3.57;;;8.20;99.90;;;;;;5063151;28;20641;-94
2021/10/23 06:51:03;;;;;;;6.73;3.70;;;8.20;99.90;;;;;;5071070;28;21028;-95
2021/10/23 06:57:09;;;;;;;5.93;3.23;;;8.40;99.90;;;;;;5057648;28;21471;-93
2021/10/23 06:59:36;;;;;;;6.10;3.13;;;8.40;99.90;;;;;;5055745;28;20630;-94
2021/10/23 07:02:10;;;;;;;7.00;3.57;;;8.40;99.90;;;;;;5054722;28;20712;-95
2021/10/23 07:04:39;;;;;;;6.90;3.20;;;8.50;99.90;;;;;;5058811;28;20629;-94
2021/10/23 07:07:06;;;;;;;6.20;3.13;;;8.50;99.90;;;;;;5062467;28;20719;-95
2021/10/23 07:09:33;;;;;;;9.67;3.30;;;8.60;99.90;;;;;;5060749;28;20625;-95
2021/10/23 07:12:01;;;;;;;6.17;3.20;;;8.60;99.90;;;;;;5050076;28;20673;-95
2021/10/23 07:14:31;;;;;;;4.90;3.00;;;8.70;99.90;;;;;;5058352;28;20665;-95
2021/10/23 07:16:58;;;;;;;5.37;2.43;;;8.70;99.90;;;;;;5052087;28;21129;-93
2021/10/23 07:19:25;;;;;;;4.40;3.23;;;8.70;99.90;;;;;;5046252;28;20665;-93
2021/10/23 07:21:52;;;;;;;4.13;3.40;;;8.70;99.90;;;;;;5051150;28;20614;-93
2021/10/23 07:24:20;;;;;;;6.10;2.80;;;8.80;99.90;;;;;;5055535;28;20971;-93
2021/10/23 07:26:47;;;;;;;6.10;3.37;;;8.90;99.90;;;;;;5052044;28;21026;-93
2021/10/23 07:29:14;;;;;;;5.70;3.30;;;9.00;99.90;;;;;;5056164;28;20637;-93
2021/10/23 07:31:43;;;;;;;6.37;2.90;;;9.00;99.90;;;;;;5060413;28;21276;-92
2021/10/23 07:34:10;;;;;;;3.63;2.90;;;9.00;99.90;;;;;;5056185;28;21224;-93
2021/10/23 07:36:38;;;;;;;7.07;3.33;;;8.90;99.90;;;;;;5057412;28;20680;-94
2021/10/23 07:39:13;;;;;;;3.57;3.10;;;9.00;99.90;;;;;;5052580;28;20642;-93
2021/10/23 07:41:42;;;;;;;5.03;3.20;;;9.10;99.90;;;;;;5045228;28;21249;-93
2021/10/23 07:44:09;;;;;;;4.63;2.90;;;9.30;99.90;;;;;;5048012;28;20646;-91
2021/10/23 07:46:36;;;;;;;10.20;3.30;;;9.20;99.90;;;;;;5040734;28;20616;-91
2021/10/23 07:49:06;;;;;;;4.83;2.83;;;9.40;99.90;;;;;;5047919;28;20612;-92
2021/10/23 07:51:34;;;;;;;5.17;3.10;;;9.40;99.90;;;;;;5047016;28;20622;-92
2021/10/23 07:54:01;;;;;;;6.37;3.33;;;9.60;99.90;;;;;;5048767;28;20666;-92
2021/10/23 07:56:28;;;;;;;3.70;2.70;;;9.80;99.90;;;;;;5052051;28;20671;-92
2021/10/23 07:58:54;;;;;;;6.70;2.93;;;10.10;99.90;;;;;;5049478;28;20642;-92
2021/10/23 08:01:22;;;;;;;8.50;3.20;;;10.20;99.90;;;;;;5049126;28;20625;-92
2021/10/23 08:03:53;;;;;;;6.50;3.27;;;10.20;99.90;;;;;;5053374;28;20660;-92
2021/10/23 08:06:27;;;;;;;7.83;3.20;;;10.20;99.90;;;;;;5042759;28;20618;-92
2021/10/23 08:08:54;;;;;;;6.50;3.10;;;10.50;99.90;;;;;;5036176;28;20631;-92
2021/10/23 08:11:21;;;;;;;5.67;2.80;;;10.80;99.90;;;;;;5038148;28;20641;-92
2021/10/23 08:13:47;;;;;;;4.40;4.00;;;10.80;99.90;;;;;;5037235;28;20741;-91
2021/10/23 08:16:16;;;;;;;6.20;3.43;;;10.80;99.90;;;;;;5041203;28;20666;-92
2021/10/23 08:18:43;;;;;;;4.93;3.63;;;11.10;99.90;;;;;;5035626;28;20636;-92
2021/10/23 08:21:10;;;;;;;4.93;3.67;;;11.00;99.90;;;;;;5038284;28;21294;-92
2021/10/23 08:23:38;;;;;;;7.40;3.80;;;11.10;99.90;;;;;;5027731;28;20638;-92
2021/10/23 08:26:07;;;;;;;6.37;3.37;;;10.90;99.90;;;;;;5032609;28;20662;-92
2021/10/23 08:28:36;;;;;;;8.80;4.30;;;11.00;99.90;;;;;;5029807;28;20628;-92
2021/10/23 08:31:04;;;;;;;4.53;3.20;;;11.00;99.90;;;;;;5027628;28;20640;-92
2021/10/23 08:33:31;;;;;;;9.43;3.73;;;11.20;99.90;;;;;;5035216;28;20627;-92
2021/10/23 08:35:59;;;;;;;5.17;3.90;;;11.60;99.90;;;;;;5032728;28;20673;-92
2021/10/23 08:38:27;;;;;;;6.63;3.50;;;11.80;99.90;;;;;;5037967;28;20666;-93
2021/10/23 08:40:56;;;;;;;4.90;4.00;;;11.90;99.90;;;;;;5038543;28;20615;-91
2021/10/23 08:43:25;;;;;;;8.37;3.87;;;11.90;99.90;;;;;;5036020;28;20718;-92
2021/10/23 08:45:56;;;;;;;7.47;2.97;;;11.70;99.90;;;;;;5031542;28;20659;-89
2021/10/23 08:48:24;;;;;;;5.30;3.10;;;11.80;99.90;;;;;;5029173;28;20668;-91
2021/10/23 08:50:52;;;;;;;4.77;2.60;;;11.90;99.90;;;;;;5039737;28;20639;-90
2021/10/23 08:53:22;;;;;;;6.17;3.00;;;12.00;99.90;;;;;;5035195;28;20619;-91
2021/10/23 08:55:51;;;;;;;6.70;3.23;;;12.00;99.90;;;;;;5047470;28;20720;-91
2021/10/23 08:58:21;;;;;;;11.30;3.00;;;12.00;99.90;;;;;;5027870;28;20677;-91
2021/10/23 09:00:49;;;;;;;8.47;2.93;;;12.10;99.90;;;;;;5034122;28;20653;-90
2021/10/23 09:03:16;;;;;;;8.23;2.73;;;12.10;99.90;;;;;;5039613;28;20639;-90
2021/10/23 09:05:43;;;;;;;5.53;3.03;;;12.10;99.90;;;;;;5035135;28;20758;-92
2021/10/23 09:08:21;;;;;;;3.20;2.20;;;12.30;99.90;;;;;;5032556;28;20673;-91
2021/10/23 09:10:51;;;;;;;6.50;3.13;;;12.60;99.90;;;;;;5028875;28;20701;-91
2021/10/23 09:13:29;;;;;;;4.93;2.37;;;12.70;99.90;;;;;;5037652;28;21027;-91
2021/10/23 09:15:58;;;;;;;5.30;2.40;;;12.80;99.90;;;;;;5034963;28;21085;-91
2021/10/23 09:18:45;;;;;;;5.20;2.60;;;13.10;99.90;;;;;;5035057;28;21241;-91
2021/10/23 09:21:21;;;;;;;7.70;3.00;;;13.30;99.90;;;;;;5035853;28;20626;-92
2021/10/23 09:23:51;;;;;;;6.07;2.63;;;13.70;99.90;;;;;;5035874;28;20666;-91
2021/10/23 09:26:46;;;;;;;8.80;2.80;;;13.60;99.90;;;;;;5026108;28;20957;-92
2021/10/23 09:29:17;;;;;;;7.10;2.83;;;14.00;99.90;;;;;;5031439;28;21165;-93
2021/10/23 09:31:46;;;;;;;5.77;2.73;;;14.30;99.90;;;;;;5032747;28;20662;-93
2021/10/23 09:34:16;;;;;;;5.03;2.73;;;13.90;99.90;;;;;;5025062;28;20698;-92
2021/10/23 09:36:46;;;;;;;6.70;2.90;;;14.20;99.90;;;;;;5029641;28;20666;-93
2021/10/23 09:39:21;;;;;;;4.00;2.43;;;14.30;99.90;;;;;;5039777;28;20727;-93
2021/10/23 09:42:07;;;;;;;4.10;2.83;;;14.50;99.90;;;;;;5032171;28;21060;-92
2021/10/23 09:44:38;;;;;;;4.93;2.73;;;14.80;99.90;;;;;;5031273;28;20662;-93
2021/10/23 09:47:05;;;;;;;5.70;2.40;;;14.80;99.90;;;;;;5033425;28;21074;-92
2021/10/23 09:49:35;;;;;;;5.27;2.80;;;15.10;99.90;;;;;;5026900;28;21000;-91
2021/10/23 09:52:11;;;;;;;4.30;2.27;;;15.50;99.90;;;;;;5039124;28;20741;-92
2021/10/23 09:54:39;;;;;;;3.33;2.20;;;15.60;99.90;;;;;;5031309;28;20697;-92
2021/10/23 09:57:11;;;;;;;3.27;2.40;;;15.30;99.90;;;;;;5036458;28;20673;-92
2021/10/23 09:59:41;;;;;;;5.70;2.83;;;14.90;99.90;;;;;;5037878;28;20717;-92
2021/10/23 10:02:08;;;;;;;2.23;1.43;;;14.60;99.90;;;;;;5034502;28;20717;-92
2021/10/23 10:04:36;;;;;;;5.70;2.27;;;13.80;99.90;;;;;;5036661;28;20662;-92
2021/10/23 10:07:04;;;;;;;7.60;2.43;;;13.70;99.90;;;;;;5031181;28;21200;-92
2021/10/23 10:09:31;;;;;;;4.83;2.20;;;13.50;99.90;;;;;;5032529;28;20627;-92
2021/10/23 10:11:58;;;;;;;5.40;2.10;;;13.20;99.90;;;;;;5025770;28;20655;-93
2021/10/23 10:14:33;;;;;;;3.53;2.17;;;13.00;99.90;;;;;;5030217;28;20657;-93
2021/10/23 10:17:09;;;;;;;6.90;2.73;;;12.80;99.90;;;;;;5033400;28;20697;-93
2021/10/23 10:19:39;;;;;;;3.63;1.97;;;12.60;99.90;;;;;;5025220;28;20636;-92
2021/10/23 10:22:10;;;;;;;2.87;2.40;;;12.40;99.90;;;;;;5046878;28;20635;-92
2021/10/23 10:24:42;;;;;;;4.47;2.47;;;12.20;99.90;;;;;;5110137;22;20760;-93
2021/10/23 10:36:30;;;;;;;2.70;2.30;;;15.00;99.90;;;;;;5009455;28;20659;-93
2021/10/23 10:39:26;;;;;;;5.17;1.70;;;15.60;98.60;;;;;;5012272;28;20650;-94
2021/10/23 10:42:45;;;;;;;2.80;1.80;;;15.70;96.50;;;;;;5003359;28;20675;-94
2021/10/23 10:45:28;;;;;;;2.50;1.70;;;16.20;94.70;;;;;;4987968;28;21045;-95
2021/10/23 10:48:15;;;;;;;3.00;1.80;;;16.20;95.20;;;;;;4998047;28;20669;-94
2021/10/23 10:50:49;;;;;;;4.23;2.00;;;17.00;92.90;;;;;;5006722;28;20659;-94
2021/10/23 10:53:21;;;;;;;1.87;1.67;;;16.90;94.50;;;;;;4992311;28;20608;-93
2021/10/23 10:55:51;;;;;;;8.40;2.90;;;17.10;95.80;;;;;;4995291;28;21082;-95
2021/10/23 10:58:21;;;;;;;4.40;3.00;;;17.40;96.30;;;;;;4992255;28;20584;-93
2021/10/23 11:01:16;;;;;;;4.90;2.73;;;17.60;95.60;;;;;;4996625;28;20672;-96
2021/10/23 11:03:47;;;;;;;3.00;2.07;;;17.60;94.60;;;;;;5007295;28;20623;-93
2021/10/23 11:06:53;;;;;;;5.37;2.60;;;16.70;95.70;;;;;;4990133;28;21002;-91
2021/10/23 11:09:38;;;;;;;3.40;2.60;;;16.20;97.80;;;;;;4988869;28;20630;-94
2021/10/23 11:12:31;;;;;;;5.90;2.93;;;15.20;99.90;;;;;;4996806;28;20666;-93
2021/10/23 11:14:59;;;;;;;5.90;2.80;;;14.40;99.90;;;;;;4993666;28;20631;-93
2021/10/23 11:17:28;;;;;;;3.27;2.10;;;14.40;99.90;;;;;;5006462;28;20655;-94
2021/10/23 11:20:00;;;;;;;3.40;2.00;;;14.10;99.90;;;;;;5002290;28;20643;-92
2021/10/23 11:22:31;;;;;;;3.90;2.00;;;13.90;99.90;;;;;;5004797;28;20665;-93
2021/10/23 11:25:06;;;;;;;7.30;2.20;;;13.60;99.90;;;;;;5002155;28;21010;-93
2021/10/23 11:27:41;;;;;;;3.10;2.00;;;13.50;99.90;;;;;;4993939;28;20635;-93
2021/10/23 11:30:24;;;;;;;3.30;2.23;;;13.70;99.90;;;;;;5002891;28;20997;-93
2021/10/23 11:32:57;;;;;;;3.27;1.63;;;15.00;99.90;;;;;;5015647;28;20707;-93
2021/10/23 11:35:33;;;;;;;4.47;3.03;;;16.00;94.50;;;;;;5014851;28;20604;-93
2021/10/23 11:38:05;;;;;;;3.87;2.07;;;16.60;92.90;;;;;;5008201;28;20663;-93
2021/10/23 11:40:40;;;;;;;3.23;2.13;;;16.70;91.40;;;;;;5012024;28;20720;-91
2021/10/23 11:43:17;;;;;;;3.53;2.07;;;17.70;90.00;;;;;;4991543;28;20624;-94
2021/10/23 11:45:44;;;;;;;3.67;2.60;;;17.90;86.40;;;;;;4997219;28;20664;-91
2021/10/23 11:48:12;;;;;;;4.47;1.90;;;19.00;86.80;;;;;;4998007;28;21278;-91
2021/10/23 11:50:41;;;;;;;3.70;2.20;;;19.30;82.20;;;;;;4995684;28;20656;-93
2021/10/23 11:53:17;;;;;;;2.70;1.90;;;19.10;83.60;;;;;;5003809;28;20629;-92
2021/10/23 11:55:46;;;;;;;3.90;1.80;;;19.00;83.80;;;;;;4999218;28;20620;-92
2021/10/23 11:58:15;;;;;;;3.53;2.23;;;19.50;79.70;;;;;;4995783;28;20631;-94
2021/10/23 12:00:44;;;;;;;2.63;2.13;;;18.80;80.80;;;;;;4999498;28;20653;-94
2021/10/23 12:03:16;;;;;;;2.30;1.60;;;17.80;82.70;;;;;;4999813;28;20767;-96
2021/10/23 12:05:45;;;;;;;2.30;1.70;;;16.60;83.00;;;;;;4998946;28;20660;-95
2021/10/23 12:08:21;;;;;;;3.30;1.80;;;16.10;88.10;;;;;;4994363;28;20660;-94
2021/10/23 12:11:16;;;;;;;4.93;2.43;;;15.50;89.30;;;;;;5000609;28;21027;-96
2021/10/23 12:13:50;;;;;;;3.93;1.93;;;15.30;90.60;;;;;;4992462;28;21136;-95
2021/10/23 12:16:38;;;;;;;1.70;1.60;;;14.70;92.40;;;;;;4994664;28;21010;-95
2021/10/23 12:19:14;;;;;;;6.07;1.57;;;14.70;94.00;;;;;;5000346;28;20643;-96
2021/10/23 12:21:47;;;;;;;2.97;2.20;;;14.60;94.30;;;;;;5007923;28;21236;-94
2021/10/23 12:24:39;;;;;;;4.10;1.70;;;14.60;93.80;;;;;;5138519;22;20635;-96
2021/10/23 12:27:23;;;;;;;3.50;1.63;;;14.40;93.60;;;;;;5021108;28;20666;-96
2021/10/23 12:29:55;;;;;;;3.10;1.93;;;14.40;94.40;;;;;;5008677;28;20655;-96
2021/10/23 12:32:34;;;;;;;6.10;2.40;;;14.30;94.50;;;;;;5015278;28;20651;-96
2021/10/23 12:35:12;;;;;;;4.63;2.07;;;14.20;95.20;;;;;;5008559;28;20699;-96
2021/10/23 12:37:59;;;;;;;2.90;2.37;;;14.10;96.80;;;;;;4996592;28;21238;-96
2021/10/23 12:40:41;;;;;;;3.40;2.23;;;14.10;94.30;;;;;;5002791;28;20628;-96
2021/10/23 12:43:10;;;;;;;4.33;3.43;;;14.00;97.10;;;;;;5007611;28;20643;-96
2021/10/23 12:45:39;;;;;;;4.73;3.00;;;13.90;96.30;;;;;;4999925;28;20667;-96
2021/10/23 12:48:09;;;;;;;4.87;2.80;;;13.90;97.70;;;;;;5002446;28;20684;-96
2021/10/23 12:50:37;;;;;;;5.13;2.50;;;13.80;96.30;;;;;;5004063;28;20743;-96
2021/10/23 12:53:08;;;;;;;2.63;1.80;;;15.00;95.20;;;;;;4979969;28;20631;-96
2021/10/23 12:55:41;;;;;;;2.93;1.60;;;16.60;84.40;;;;;;4986208;28;20662;-96
2021/10/23 12:58:09;;;;;;;3.60;1.63;;;17.90;77.20;;;;;;5008080;28;20628;-96
2021/10/23 13:00:40;;;;;;;4.20;1.70;;;18.70;73.10;;;;;;4997405;28;20641;-96
2021/10/23 13:03:08;;;;;;;3.63;1.20;;;19.60;69.40;;;;;;4983004;28;20636;-96
2021/10/23 13:05:36;;;;;;;4.10;2.20;;;20.20;66.00;;;;;;4990400;28;21096;-96
2021/10/23 13:08:04;;;;;;;2.60;1.90;;;19.80;66.70;;;;;;5006641;28;20660;-96
2021/10/23 13:10:32;;;;;;;4.03;1.87;;;20.20;66.70;;;;;;4999380;28;20641;-96
2021/10/23 13:13:01;;;;;;;2.70;2.00;;;20.90;64.30;;;;;;5011006;28;20641;-96
2021/10/23 13:15:29;;;;;;;2.40;1.50;;;21.10;63.70;;;;;;5005499;28;20718;-96
2021/10/23 13:17:57;;;;;;;3.47;2.13;;;21.00;62.90;;;;;;5001247;28;20624;-96
2021/10/23 13:20:24;;;;;;;2.50;1.90;;;20.50;62.40;;;;;;5003994;28;21012;-96
2021/10/23 13:22:51;;;;;;;2.10;1.70;;;19.70;63.70;;;;;;4998124;28;21142;-96
2021/10/23 13:25:18;;;;;;;3.37;3.00;;;18.70;65.50;;;;;;4996904;28;20664;-96
2021/10/23 13:27:46;;;;;;;4.37;3.00;;;17.90;69.90;;;;;;5002599;28;20760;-96
2021/10/23 13:30:16;;;;;;;2.47;2.20;;;16.90;74.30;;;;;;5004790;28;21209;-96
2021/10/23 13:32:53;;;;;;;4.60;1.97;;;16.70;75.10;;;;;;5011557;28;20637;-96
2021/10/23 13:35:20;;;;;;;3.63;1.90;;;16.20;74.90;;;;;;5005015;28;20712;-96
2021/10/23 13:37:47;;;;;;;4.30;2.23;;;16.00;78.20;;;;;;5015340;28;20639;-96
2021/10/23 13:40:14;;;;;;;3.63;2.60;;;16.00;80.30;;;;;;5006226;28;20655;-96
2021/10/23 13:42:43;;;;;;;2.40;2.10;;;15.80;84.50;;;;;;4999737;28;20676;-96
2021/10/23 13:45:12;;;;;;;1.90;1.30;;;15.70;80.20;;;;;;4997391;28;20699;-96
2021/10/23 13:47:42;;;;;;;3.77;1.50;;;15.90;81.50;;;;;;5000530;28;20692;-96
2021/10/23 13:50:09;;;;;;;2.90;1.50;;;16.10;79.60;;;;;;4999391;28;20661;-96
2021/10/23 13:52:38;;;;;;;3.30;1.60;;;16.00;80.10;;;;;;4999439;28;20633;-96
2021/10/23 13:55:05;;;;;;;2.90;1.30;;;15.80;79.30;;;;;;5005896;28;20671;-96
2021/10/23 13:57:33;;;;;;;1.97;1.50;;;15.60;80.50;;;;;;5001602;28;20644;-96
2021/10/23 14:00:01;;;;;;;2.60;1.30;;;15.30;81.20;;;;;;5002424;28;21207;-96
2021/10/23 14:02:32;;;;;;;4.00;1.70;;;14.90;84.60;;;;;;5004488;28;20855;-96
2021/10/23 14:05:02;;;;;;;3.03;2.07;;;14.70;85.20;;;;;;5007696;28;21207;-96
2021/10/23 14:07:31;;;;;;;2.50;1.47;;;14.60;84.70;;;;;;5014095;28;21253;-96
2021/10/23 14:10:03;;;;;;;2.63;1.67;;;14.30;86.80;;;;;;5001616;28;20672;-96
2021/10/23 14:12:31;;;;;;;3.87;2.10;;;14.20;88.80;;;;;;5008378;28;20676;-96
2021/10/23 14:15:02;;;;;;;5.00;1.40;;;13.90;91.30;;;;;;5012662;28;20659;-96
2021/10/23 14:17:30;;;;;;;1.63;1.40;;;13.80;92.60;;;;;;5016564;28;20865;-96
2021/10/23 14:19:58;;;;;;;4.47;2.83;;;13.70;93.90;;;;;;5004597;28;20643;-96
2021/10/23 14:22:27;;;;;;;3.93;1.70;;;13.60;95.30;;;;;;5019266;28;20715;-96
2021/10/23 14:24:54;;;;;;;3.23;2.03;;;13.50;96.10;;;;;;5021679;28;20667;-96
2021/10/23 14:27:31;;;;;;;3.43;2.37;;;13.20;95.00;;;;;;5023514;28;20656;-96
2021/10/23 14:30:01;;;;;;;2.90;2.17;;;13.30;95.60;;;;;;5018029;28;20616;-96
2021/10/23 14:32:29;;;;;;;3.20;2.10;;;13.40;95.60;;;;;;5014309;28;20610;-96
2021/10/23 14:34:56;;;;;;;3.67;2.23;;;13.30;98.00;;;;;;4999390;28;20664;-96
2021/10/23 14:37:24;;;;;;;3.93;1.63;;;14.20;95.80;;;;;;5008181;28;20628;-96
2021/10/23 14:40:00;;;;;;;3.40;1.83;;;15.50;91.30;;;;;;4998760;28;20747;-96
2021/10/23 14:42:27;;;;;;;2.70;1.87;;;16.90;83.60;;;;;;5000152;28;20977;-96
2021/10/23 14:44:57;;;;;;;4.50;1.50;;;17.80;77.60;;;;;;5008761;28;20734;-96
2021/10/23 14:47:24;;;;;;;2.80;2.10;;;18.20;74.00;;;;;;4996615;28;20662;-96
2021/10/23 14:49:51;;;;;;;3.07;1.70;;;18.30;72.70;;;;;;4999678;28;20999;-96
2021/10/23 14:52:19;;;;;;;5.17;2.20;;;18.80;72.30;;;;;;4994524;28;20636;-96
2021/10/23 14:54:46;;;;;;;1.80;1.50;;;19.50;67.70;;;;;;4999071;28;20808;-96
2021/10/23 14:57:16;;;;;;;2.27;1.27;;;19.30;68.00;;;;;;5000161;28;21196;-96
2021/10/23 14:59:43;;;;;;;2.40;1.20;;;19.20;66.80;;;;;;4992407;28;20651;-96
2021/10/23 15:02:10;;;;;;;1.37;1.17;;;19.40;65.40;;;;;;4997464;28;20642;-96
2021/10/23 15:04:38;;;;;;;2.47;1.47;;;19.50;64.60;;;;;;4997679;28;20672;-96
2021/10/23 15:07:06;;;;;;;4.20;1.33;;;19.80;63.90;;;;;;4995868;28;21275;-96
2021/10/23 15:09:33;;;;;;;2.60;1.47;;;20.10;64.60;;;;;;4995360;28;20625;-96
2021/10/23 15:12:00;;;;;;;2.03;1.30;;;19.90;64.10;;;;;;4996009;28;21062;-96